Time;durP1;ratioP1;P1;durP2;ratioP2;P2;SDS_P1;SDS_P2;PMS_P1;PMS_P2;Temp;Humidity;BMP_temperature;BMP_pressure;BME280_temperature;BME280_humidity;BME280_pressure;Samples;Min_cycle;Max_cycle;Signal;HPM_P1;HPM_P2
2021/03/15 00:00:29;;;;;;;;;;;;;;;;;;4907766;28;20035;-86
2021/03/15 00:02:55;;;;;;;18.05;3.35;;;;;;;;;;4903359;28;19922;-87
2021/03/15 00:05:21;;;;;;;16.50;3.70;;;;;;;;;;4912099;28;20032;-88
2021/03/15 00:07:48;;;;;;;20.75;3.95;;;;;;;;;;4922195;28;20455;-86
2021/03/15 00:10:16;;;;;;;21.33;4.07;;;;;;;;;;4918574;28;20070;-88
2021/03/15 00:12:45;;;;;;;18.92;3.72;;;;;;;;;;4916035;28;20079;-87
2021/03/15 00:15:13;;;;;;;18.52;3.95;;;;;;;;;;4904999;28;20497;-85
2021/03/15 00:17:39;;;;;;;20.55;3.95;;;;;;;;;;4919217;28;20140;-87
2021/03/15 00:20:05;;;;;;;;;;;;;;;;;;4910727;28;20046;-87
2021/03/15 00:22:31;;;;;;;15.88;4.00;;;;;;;;;;4904694;28;19923;-87
2021/03/15 00:24:57;;;;;;;;;;;;;;;;;;4917519;28;20066;-87
2021/03/15 00:27:23;;;;;;;16.33;3.03;;;;;;;;;;4920949;28;19911;-87
2021/03/15 00:29:51;;;;;;;15.65;3.67;;;;;;;;;;4914872;28;20106;-88
2021/03/15 00:32:19;;;;;;;17.58;4.00;;;;;;;;;;4918888;28;20059;-87
2021/03/15 00:34:47;;;;;;;15.45;3.30;;;;;;;;;;4918051;28;20023;-89
2021/03/15 00:37:14;;;;;;;15.52;3.60;;;;;;;;;;4939223;28;20046;-87
2021/03/15 00:39:41;;;;;;;18.92;5.30;;;;;;;;;;4941696;28;20011;-88
2021/03/15 00:42:08;;;;;;;17.48;5.63;;;;;;;;;;4913481;28;20048;-88
2021/03/15 00:44:35;;;;;;;15.77;4.55;;;;;;;;;;4897027;28;20044;-86
2021/03/15 00:47:02;;;;;;;19.00;4.13;;;;;;;;;;4916326;28;20078;-88
2021/03/15 00:49:28;;;;;;;18.05;4.20;;;;;;;;;;4915896;28;20134;-86
2021/03/15 00:51:54;;;;;;;14.77;3.30;;;;;;;;;;4922683;28;20090;-87
2021/03/15 00:54:21;;;;;;;18.63;3.70;;;;;;;;;;4933424;28;20028;-86
2021/03/15 00:56:48;;;;;;;17.40;4.15;;;;;;;;;;4920654;28;20035;-86
2021/03/15 00:59:15;;;;;;;17.40;3.60;;;;;;;;;;4924399;28;20044;-86
2021/03/15 01:01:46;;;;;;;20.67;3.65;;;;;;;;;;4910650;28;20051;-87
2021/03/15 01:04:15;;;;;;;18.08;3.80;;;;;;;;;;4923338;28;20043;-87
2021/03/15 01:06:44;;;;;;;13.27;2.95;;;;;;;;;;4911929;29;20761;-86
2021/03/15 01:09:11;;;;;;;16.83;2.90;;;;;;;;;;4927171;28;20066;-87
2021/03/15 01:11:39;;;;;;;16.02;3.40;;;;;;;;;;4904881;29;20045;-88
2021/03/15 01:14:05;;;;;;;18.00;3.50;;;;;;;;;;4908447;29;20040;-87
2021/03/15 01:16:31;;;;;;;15.85;3.20;;;;;;;;;;4908183;29;20031;-86
2021/03/15 01:18:59;;;;;;;18.70;3.65;;;;;;;;;;4896249;29;20044;-86
2021/03/15 01:21:32;;;;;;;13.13;2.65;;;;;;;;;;4909067;29;20027;-87
2021/03/15 01:23:58;;;;;;;14.90;2.97;;;;;;;;;;4903111;29;20052;-86
2021/03/15 01:26:30;;;;;;;17.75;2.88;;;;;;;;;;4912725;28;20055;-86
2021/03/15 01:28:59;;;;;;;15.15;3.10;;;;;;;;;;4904735;29;20059;-86
2021/03/15 01:31:25;;;;;;;16.48;3.17;;;;;;;;;;4905542;28;20103;-86
2021/03/15 01:33:51;;;;;;;12.50;3.03;;;;;;;;;;4900702;29;20043;-85
2021/03/15 01:36:18;;;;;;;15.00;3.13;;;;;;;;;;4905960;29;20031;-86
2021/03/15 01:38:45;;;;;;;17.33;3.22;;;;;;;;;;4907767;29;20039;-86
2021/03/15 01:41:12;;;;;;;14.13;2.67;;;;;;;;;;4914586;29;20416;-86
2021/03/15 01:43:38;;;;;;;18.13;4.07;;;;;;;;;;4914351;29;20194;-86
2021/03/15 01:46:04;;;;;;;18.73;3.60;;;;;;;;;;4910195;29;20032;-87
2021/03/15 01:48:32;;;;;;;14.63;3.22;;;;;;;;;;4916720;29;20019;-87
2021/03/15 01:50:58;;;;;;;14.45;2.95;;;;;;;;;;4927969;28;20128;-86
2021/03/15 01:53:25;;;;;;;14.93;2.60;;;;;;;;;;4930732;29;20047;-86
2021/03/15 01:55:53;;;;;;;13.77;3.05;;;;;;;;;;4885798;29;20044;-87
2021/03/15 01:58:20;;;;;;;13.55;3.08;;;;;;;;;;4880467;29;20051;-86
2021/03/15 02:00:49;;;;;;;15.13;3.25;;;;;;;;;;4890818;29;20036;-87
2021/03/15 02:03:20;;;;;;;16.90;3.22;;;;;;;;;;4909829;29;20040;-87
2021/03/15 02:05:47;;;;;;;14.88;3.15;;;;;;;;;;4894325;28;20130;-87
2021/03/15 02:08:14;;;;;;;15.63;3.63;;;;;;;;;;4913460;28;20043;-87
2021/03/15 02:10:42;;;;;;;15.85;3.17;;;;;;;;;;4906309;28;20047;-86
2021/03/15 02:13:22;;;;;;;15.07;3.08;;;;;;;;;;4906637;28;20616;-86
2021/03/15 02:16:08;;;;;;;14.85;2.70;;;;;;;;;;4911648;29;20056;-86
2021/03/15 02:18:34;;;;;;;18.15;3.15;;;;;;;;;;4909616;29;20074;-86
2021/03/15 02:21:20;;;;;;;13.80;2.50;;;;;;;;;;4909934;28;20048;-86
2021/03/15 02:23:53;;;;;;;16.90;3.00;;;;;;;;;;4907531;28;20048;-87
2021/03/15 02:26:48;;;;;;;15.27;3.10;;;;;;;;;;4910221;29;20044;-86
2021/03/15 02:29:24;;;;;;;11.52;2.88;;;;;;;;;;4910171;29;20701;-86
2021/03/15 02:32:09;;;;;;;12.25;2.75;;;;;;;;;;4888123;29;20051;-85
2021/03/15 02:34:44;;;;;;;15.10;2.90;;;;;;;;;;4881443;29;20087;-85
2021/03/15 02:37:13;;;;;;;15.70;3.05;;;;;;;;;;4901940;29;20511;-86
2021/03/15 02:39:44;;;;;;;13.68;2.75;;;;;;;;;;4918188;29;20036;-86
2021/03/15 02:42:12;;;;;;;17.85;3.17;;;;;;;;;;4909070;29;20484;-86
2021/03/15 02:44:39;;;;;;;13.98;2.83;;;;;;;;;;4911289;29;20059;-86
2021/03/15 02:47:09;;;;;;;15.27;2.85;;;;;;;;;;4911692;28;20048;-87
2021/03/15 02:49:37;;;;;;;12.98;2.30;;;;;;;;;;4910405;29;20126;-85
2021/03/15 02:52:05;;;;;;;13.18;2.42;;;;;;;;;;4910351;28;20079;-85
2021/03/15 02:54:32;;;;;;;15.25;3.03;;;;;;;;;;4911536;29;20040;-86
2021/03/15 02:56:59;;;;;;;14.43;2.85;;;;;;;;;;4903824;29;20047;-86
2021/03/15 02:59:27;;;;;;;14.65;2.75;;;;;;;;;;4898679;29;20496;-86
2021/03/15 03:01:55;;;;;;;18.73;2.85;;;;;;;;;;4902368;29;20091;-85
2021/03/15 03:04:22;;;;;;;20.55;3.35;;;;;;;;;;4904210;29;20044;-87
2021/03/15 03:06:50;;;;;;;18.58;3.00;;;;;;;;;;4912985;29;20035;-88
2021/03/15 03:09:19;;;;;;;15.90;3.00;;;;;;;;;;4906289;29;20048;-88
2021/03/15 03:11:47;;;;;;;15.75;2.45;;;;;;;;;;4916229;28;20074;-87
2021/03/15 03:14:14;;;;;;;12.10;2.50;;;;;;;;;;4914084;28;20043;-87
2021/03/15 03:16:41;;;;;;;13.10;2.70;;;;;;;;;;4927039;28;20075;-88
2021/03/15 03:19:12;;;;;;;13.88;2.65;;;;;;;;;;4933349;28;20892;-86
2021/03/15 03:21:40;;;;;;;13.88;2.90;;;;;;;;;;4932275;28;20031;-85
2021/03/15 03:24:08;;;;;;;18.38;3.15;;;;;;;;;;4912967;28;20055;-87
2021/03/15 03:26:38;;;;;;;16.20;2.70;;;;;;;;;;4908533;29;20583;-87
2021/03/15 03:29:07;;;;;;;14.05;2.83;;;;;;;;;;4909338;28;21218;-86
2021/03/15 03:31:36;;;;;;;12.98;2.50;;;;;;;;;;4907908;28;20039;-88
2021/03/15 03:34:02;;;;;;;14.50;3.33;;;;;;;;;;4925207;28;20056;-88
2021/03/15 03:36:28;;;;;;;13.27;2.20;;;;;;;;;;4917891;28;20066;-87
2021/03/15 03:38:55;;;;;;;15.20;2.78;;;;;;;;;;4911844;28;20087;-87
2021/03/15 03:41:21;;;;;;;14.80;2.78;;;;;;;;;;4922349;28;20057;-86
2021/03/15 03:43:47;;;;;;;13.93;2.90;;;;;;;;;;4908610;28;20031;-87
2021/03/15 03:46:15;;;;;;;14.35;2.45;;;;;;;;;;4908637;28;20035;-87
2021/03/15 03:48:42;;;;;;;16.77;2.53;;;;;;;;;;4923381;28;20032;-87
2021/03/15 03:51:09;;;;;;;14.90;2.95;;;;;;;;;;4929622;28;20486;-87
2021/03/15 03:53:52;;;;;;;19.77;3.10;;;;;;;;;;4921080;28;20153;-88
2021/03/15 03:56:24;;;;;;;15.13;2.42;;;;;;;;;;4914206;28;20043;-85
2021/03/15 03:58:53;;;;;;;13.38;2.85;;;;;;;;;;4903865;28;20042;-87
2021/03/15 04:01:22;;;;;;;14.63;2.85;;;;;;;;;;4908828;28;20039;-88
2021/03/15 04:03:52;;;;;;;17.80;3.10;;;;;;;;;;4908893;28;20056;-87
2021/03/15 04:06:19;;;;;;;17.20;2.70;;;;;;;;;;4913846;28;20039;-87
2021/03/15 04:08:50;;;;;;;15.35;2.80;;;;;;;;;;4910017;28;20043;-87
2021/03/15 04:11:19;;;;;;;14.38;2.85;;;;;;;;;;4908624;29;20063;-86
2021/03/15 04:13:48;;;;;;;14.73;2.58;;;;;;;;;;4904816;29;20110;-88
2021/03/15 04:16:14;;;;;;;13.80;2.80;;;;;;;;;;4902307;29;20099;-84
2021/03/15 04:18:45;;;;;;;16.98;2.95;;;;;;;;;;4907721;29;20467;-86
2021/03/15 04:21:12;;;;;;;14.63;2.83;;;;;;;;;;4911294;29;20047;-87
2021/03/15 04:23:40;;;;;;;12.05;2.75;;;;;;;;;;4906205;28;20352;-87
2021/03/15 04:26:08;;;;;;;16.42;3.00;;;;;;;;;;4883444;29;20032;-87
2021/03/15 04:28:36;;;;;;;18.60;2.67;;;;;;;;;;4911856;29;20048;-87
2021/03/15 04:31:05;;;;;;;13.77;2.13;;;;;;;;;;4889414;29;20099;-85
2021/03/15 04:33:32;;;;;;;15.35;3.22;;;;;;;;;;4911697;29;20057;-87
2021/03/15 04:35:58;;;;;;;18.27;2.92;;;;;;;;;;4905821;29;20047;-85
2021/03/15 04:38:25;;;;;;;;;;;;;;;;;;4911262;29;20043;-87
2021/03/15 04:40:53;;;;;;;13.43;2.83;;;;;;;;;;4909285;28;19919;-85
2021/03/15 04:43:21;;;;;;;14.20;2.97;;;;;;;;;;4903276;29;20032;-85
2021/03/15 04:45:49;;;;;;;16.77;2.85;;;;;;;;;;4909711;29;20123;-85
2021/03/15 04:48:18;;;;;;;13.02;2.42;;;;;;;;;;4907897;29;20036;-86
2021/03/15 04:50:45;;;;;;;14.93;2.97;;;;;;;;;;4919577;28;20042;-85
2021/03/15 04:53:12;;;;;;;13.68;3.03;;;;;;;;;;4902878;29;20533;-85
2021/03/15 04:55:50;;;;;;;15.80;3.40;;;;;;;;;;4909706;29;20111;-86
2021/03/15 04:58:18;;;;;;;14.20;2.88;;;;;;;;;;4912762;29;20059;-85
2021/03/15 05:00:46;;;;;;;12.85;2.50;;;;;;;;;;4912712;29;20024;-86
2021/03/15 05:03:14;;;;;;;18.13;3.30;;;;;;;;;;4908346;29;20040;-85
2021/03/15 05:05:43;;;;;;;15.55;2.88;;;;;;;;;;4922768;28;20032;-87
2021/03/15 05:08:10;;;;;;;18.58;3.30;;;;;;;;;;4910133;29;20097;-86
2021/03/15 05:10:37;;;;;;;15.20;3.05;;;;;;;;;;4914619;28;20032;-86
2021/03/15 05:13:08;;;;;;;15.80;2.95;;;;;;;;;;4932029;28;21115;-86
2021/03/15 05:15:37;;;;;;;16.38;3.13;;;;;;;;;;4938819;28;20119;-86
2021/03/15 05:18:06;;;;;;;17.75;3.53;;;;;;;;;;4915376;28;20047;-86
2021/03/15 05:20:36;;;;;;;14.73;3.03;;;;;;;;;;4921563;28;20558;-86
2021/03/15 05:23:08;;;;;;;13.98;3.00;;;;;;;;;;4917620;28;20050;-86
2021/03/15 05:25:35;;;;;;;17.17;3.47;;;;;;;;;;4922362;28;20775;-85
2021/03/15 05:28:01;;;;;;;15.00;3.65;;;;;;;;;;4907033;28;20074;-86
2021/03/15 05:30:28;;;;;;;15.25;2.85;;;;;;;;;;4933085;28;20043;-86
2021/03/15 05:32:56;;;;;;;14.63;2.88;;;;;;;;;;4912779;28;20040;-85
2021/03/15 05:35:28;;;;;;;14.95;3.72;;;;;;;;;;4921778;28;20123;-85
2021/03/15 05:37:54;;;;;;;20.35;4.20;;;;;;;;;;4924960;28;20036;-86
2021/03/15 05:40:21;;;;;;;24.27;6.13;;;;;;;;;;4917080;28;20826;-86
2021/03/15 05:43:07;;;;;;;16.85;4.35;;;;;;;;;;4916018;28;20027;-86
2021/03/15 05:45:52;;;;;;;21.40;5.07;;;;;;;;;;4928173;28;20519;-86
2021/03/15 05:48:18;;;;;;;21.35;4.93;;;;;;;;;;4927547;28;20130;-86
2021/03/15 05:50:44;;;;;;;22.20;5.40;;;;;;;;;;4927267;28;21231;-86
2021/03/15 05:53:32;;;;;;;28.27;5.13;;;;;;;;;;4919914;28;20519;-86
2021/03/15 05:55:58;;;;;;;;;;;;;;;;;;4931530;28;20127;-86
2021/03/15 05:58:44;;;;;;;17.35;4.18;;;;;;;;;;4916565;28;20312;-86
2021/03/15 06:01:26;;;;;;;19.00;4.40;;;;;;;;;;4913107;28;20067;-87
2021/03/15 06:04:09;;;;;;;16.60;3.60;;;;;;;;;;4928678;28;20058;-86
2021/03/15 06:06:39;;;;;;;19.20;4.20;;;;;;;;;;4918141;28;20030;-85
2021/03/15 06:09:06;;;;;;;17.67;3.50;;;;;;;;;;4914204;28;20780;-86
2021/03/15 06:11:46;;;;;;;16.33;3.28;;;;;;;;;;4916177;28;20055;-86
2021/03/15 06:14:17;;;;;;;19.20;3.53;;;;;;;;;;4914456;28;20043;-86
2021/03/15 06:16:46;;;;;;;15.10;3.50;;;;;;;;;;4915904;28;20043;-84
2021/03/15 06:19:12;;;;;;;18.80;3.33;;;;;;;;;;4903948;28;20071;-86
2021/03/15 06:21:41;;;;;;;15.52;3.15;;;;;;;;;;4929908;28;20024;-86
2021/03/15 06:24:07;;;;;;;24.45;3.63;;;;;;;;;;4908925;28;20066;-85
2021/03/15 06:26:34;;;;;;;14.85;2.70;;;;;;;;;;4922494;28;20043;-86
2021/03/15 06:29:06;;;;;;;16.92;3.70;;;;;;;;;;4908143;28;20047;-86
2021/03/15 06:31:35;;;;;;;20.33;4.07;;;;;;;;;;4927821;28;20051;-86
2021/03/15 06:34:01;;;;;;;19.15;3.95;;;;;;;;;;4919037;28;20043;-86
2021/03/15 06:36:29;;;;;;;15.55;3.45;;;;;;;;;;4922287;28;20101;-86
2021/03/15 06:38:56;;;;;;;17.98;3.83;;;;;;;;;;4929465;28;20122;-86
2021/03/15 06:41:26;;;;;;;17.10;3.55;;;;;;;;;;4930622;28;20047;-85
2021/03/15 06:43:52;;;;;;;16.00;4.00;;;;;;;;;;4922521;28;20599;-87
2021/03/15 06:46:19;;;;;;;24.27;5.18;;;;;;;;;;4917624;28;20487;-86
2021/03/15 06:48:46;;;;;;;20.58;6.47;;;;;;;;;;4911860;28;20034;-86
2021/03/15 06:51:12;;;;;;;21.38;5.38;;;;;;;;;;4927867;28;20046;-86
2021/03/15 06:53:38;;;;;;;;;;;;;;;;;;4925204;28;20031;-85
2021/03/15 06:56:11;;;;;;;20.70;4.05;;;;;;;;;;4886839;29;19923;-86
2021/03/15 06:58:46;;;;;;;16.48;4.78;;;;;;;;;;4921567;28;20049;-86
2021/03/15 07:01:14;;;;;;;20.25;4.95;;;;;;;;;;4912476;28;20096;-86
2021/03/15 07:03:42;;;;;;;23.02;7.18;;;;;;;;;;4920599;29;20135;-86
2021/03/15 07:06:09;;;;;;;21.65;5.32;;;;;;;;;;4884802;28;20574;-86
2021/03/15 07:08:35;;;;;;;23.65;6.03;;;;;;;;;;4927898;28;20042;-86
2021/03/15 07:11:01;;;;;;;;;;;;;;;;;;4927439;28;20775;-86
2021/03/15 07:13:37;;;;;;;24.70;6.25;;;;;;;;;;4926048;28;19929;-86
2021/03/15 07:16:03;;;;;;;17.92;5.30;;;;;;;;;;4926854;28;20031;-87
2021/03/15 07:18:33;;;;;;;23.15;5.90;;;;;;;;;;4927806;28;20065;-88
2021/03/15 07:21:00;;;;;;;22.95;5.43;;;;;;;;;;4911081;28;20054;-88
2021/03/15 07:23:47;;;;;;;19.63;5.88;;;;;;;;;;4929257;28;20400;-85
2021/03/15 07:26:14;;;;;;;20.85;5.60;;;;;;;;;;4926247;28;20042;-88
2021/03/15 07:28:40;;;;;;;20.13;5.45;;;;;;;;;;4912420;28;20122;-87
2021/03/15 07:31:19;;;;;;;17.35;5.30;;;;;;;;;;4910903;28;20038;-86
2021/03/15 07:33:55;;;;;;;18.13;5.07;;;;;;;;;;4923491;28;20471;-86
2021/03/15 07:36:30;;;;;;;16.65;5.00;;;;;;;;;;4925477;28;20039;-87
2021/03/15 07:38:57;;;;;;;19.90;4.55;;;;;;;;;;4906673;28;20119;-86
2021/03/15 07:41:24;;;;;;;22.73;4.35;;;;;;;;;;4921547;28;20035;-83
2021/03/15 07:43:52;;;;;;;21.25;4.15;;;;;;;;;;4909544;28;20031;-83
2021/03/15 07:46:28;;;;;;;19.42;4.53;;;;;;;;;;4922535;28;20031;-87
2021/03/15 07:48:58;;;;;;;22.13;5.35;;;;;;;;;;4929092;28;20061;-87
2021/03/15 07:51:36;;;;;;;26.92;4.57;;;;;;;;;;4918466;28;20026;-86
2021/03/15 07:54:07;;;;;;;16.70;3.42;;;;;;;;;;4906550;28;20122;-86
2021/03/15 07:56:34;;;;;;;22.88;4.10;;;;;;;;;;4909035;28;20051;-86
2021/03/15 07:59:01;;;;;;;18.52;3.78;;;;;;;;;;4910728;28;20042;-87
2021/03/15 08:01:28;;;;;;;21.80;4.38;;;;;;;;;;4928599;28;20035;-87
2021/03/15 08:03:55;;;;;;;16.13;4.28;;;;;;;;;;4904483;28;20027;-87
2021/03/15 08:06:21;;;;;;;20.63;5.32;;;;;;;;;;4919442;28;20941;-86
2021/03/15 08:08:48;;;;;;;20.05;5.88;;;;;;;;;;4904042;28;20142;-87
2021/03/15 08:11:16;;;;;;;19.02;5.03;;;;;;;;;;4903992;29;20816;-86
2021/03/15 08:13:47;;;;;;;16.83;4.15;;;;;;;;;;4914714;28;20489;-84
2021/03/15 08:16:17;;;;;;;10.82;3.75;;;;;;;;;;4902730;28;20083;-86
2021/03/15 08:18:54;;;;;;;13.23;2.60;;;;;;;;;;4911756;28;20062;-85
2021/03/15 08:21:33;;;;;;;13.52;4.82;;;;;;;;;;4913296;28;20067;-86
2021/03/15 08:24:00;;;;;;;9.90;1.90;;;;;;;;;;4918163;28;20031;-85
2021/03/15 08:26:27;;;;;;;13.80;2.25;;;;;;;;;;4914839;29;20043;-86
2021/03/15 08:29:00;;;;;;;9.68;2.33;;;;;;;;;;4905511;28;20050;-86
2021/03/15 08:31:43;;;;;;;11.38;2.20;;;;;;;;;;4922026;28;20046;-85
2021/03/15 08:34:15;;;;;;;8.30;2.00;;;;;;;;;;4918244;28;20043;-86
2021/03/15 08:36:43;;;;;;;9.23;2.00;;;;;;;;;;4949176;28;20015;-86
2021/03/15 08:39:29;;;;;;;11.25;2.38;;;;;;;;;;4927658;28;20546;-86
2021/03/15 08:42:10;;;;;;;9.40;2.38;;;;;;;;;;4908312;28;20583;-86
2021/03/15 08:44:41;;;;;;;15.35;2.20;;;;;;;;;;4905478;28;20043;-85
2021/03/15 08:47:07;;;;;;;9.15;1.55;;;;;;;;;;4910624;28;20072;-86
2021/03/15 08:49:36;;;;;;;;;;;;;;;;;;4909387;28;20042;-85
2021/03/15 08:52:02;;;;;;;9.90;2.42;;;;;;;;;;4929296;28;19914;-86
2021/03/15 08:54:38;;;;;;;9.20;1.70;;;;;;;;;;4926366;28;20027;-86
2021/03/15 08:57:04;;;;;;;;;;;;;;;;;;4904603;28;20530;-86
2021/03/15 08:59:32;;;;;;;10.73;2.80;;;;;;;;;;4934212;28;19934;-88
2021/03/15 09:02:03;;;;;;;10.15;1.65;;;;;;;;;;4909782;28;20054;-85
2021/03/15 09:04:30;;;;;;;9.57;2.47;;;;;;;;;;4932581;28;20134;-87
2021/03/15 09:06:57;;;;;;;9.77;2.35;;;;;;;;;;4930330;28;20093;-88
2021/03/15 09:09:23;;;;;;;8.93;2.22;;;;;;;;;;4921933;29;20037;-86
2021/03/15 09:11:49;;;;;;;;;;;;;;;;;;4927314;28;20040;-86
2021/03/15 09:14:16;;;;;;;10.85;1.98;;;;;;;;;;4931245;28;19925;-85
2021/03/15 09:16:49;;;;;;;8.63;1.67;;;;;;;;;;4912498;28;20453;-85
2021/03/15 09:19:21;;;;;;;10.43;1.80;;;;;;;;;;4928901;28;20114;-85
2021/03/15 09:21:49;;;;;;;10.10;1.50;;;;;;;;;;4930001;28;20020;-84
2021/03/15 09:24:34;;;;;;;12.13;2.00;;;;;;;;;;4910178;28;20027;-86
2021/03/15 09:27:02;;;;;;;10.60;2.38;;;;;;;;;;4924352;28;20028;-85
2021/03/15 09:29:30;;;;;;;9.57;2.70;;;;;;;;;;4936281;28;20039;-86
2021/03/15 09:32:00;;;;;;;9.55;1.95;;;;;;;;;;4912843;28;20126;-84
2021/03/15 09:34:28;;;;;;;9.73;2.13;;;;;;;;;;4911326;29;20036;-85
2021/03/15 09:36:58;;;;;;;7.22;1.83;;;;;;;;;;4912355;28;20134;-83
2021/03/15 09:39:27;;;;;;;8.07;1.70;;;;;;;;;;4930522;28;20114;-87
2021/03/15 09:41:53;;;;;;;9.05;1.70;;;;;;;;;;4933733;28;20033;-85
2021/03/15 09:44:33;;;;;;;8.02;1.58;;;;;;;;;;4912238;28;20653;-84
2021/03/15 09:47:00;;;;;;;10.30;1.88;;;;;;;;;;4915569;28;20096;-85
2021/03/15 09:49:32;;;;;;;9.55;1.60;;;;;;;;;;4922671;28;20162;-86
2021/03/15 09:52:09;;;;;;;6.20;1.30;;;;;;;;;;4925297;28;20027;-85
2021/03/15 09:54:45;;;;;;;8.70;1.38;;;;;;;;;;4920736;28;20054;-85
2021/03/15 09:57:13;;;;;;;8.77;1.65;;;;;;;;;;4910595;28;20046;-86
2021/03/15 09:59:40;;;;;;;8.65;1.75;;;;;;;;;;4913094;28;20070;-85
2021/03/15 10:02:06;;;;;;;7.53;1.77;;;;;;;;;;4919715;28;20042;-86
2021/03/15 10:04:34;;;;;;;11.43;2.13;;;;;;;;;;4912693;28;20078;-85
2021/03/15 10:07:07;;;;;;;8.13;1.73;;;;;;;;;;4915459;28;20042;-85
2021/03/15 10:09:38;;;;;;;8.05;1.88;;;;;;;;;;4928501;28;20036;-88
2021/03/15 10:12:06;;;;;;;7.85;1.88;;;;;;;;;;4899605;29;20615;-86
2021/03/15 10:14:33;;;;;;;6.70;1.50;;;;;;;;;;4908307;29;20066;-86
2021/03/15 10:17:04;;;;;;;7.72;1.80;;;;;;;;;;4900518;28;20068;-86
2021/03/15 10:19:31;;;;;;;8.27;1.83;;;;;;;;;;4906155;29;20042;-86
2021/03/15 10:22:13;;;;;;;11.50;2.10;;;;;;;;;;4902911;29;20770;-85
2021/03/15 10:24:40;;;;;;;6.80;1.60;;;;;;;;;;4911984;29;20023;-85
2021/03/15 10:27:16;;;;;;;9.45;2.05;;;;;;;;;;4910149;29;20042;-84
2021/03/15 10:29:49;;;;;;;11.32;2.00;;;;;;;;;;4920734;29;20039;-85
2021/03/15 10:32:15;;;;;;;7.88;1.60;;;;;;;;;;4907101;29;20055;-85
2021/03/15 10:34:43;;;;;;;6.97;1.75;;;;;;;;;;4920938;29;20043;-85
2021/03/15 10:37:10;;;;;;;9.13;2.00;;;;;;;;;;4906396;28;20071;-83
2021/03/15 10:39:37;;;;;;;8.45;1.80;;;;;;;;;;4917572;29;20024;-83
2021/03/15 10:42:04;;;;;;;5.97;1.17;;;;;;;;;;4902492;29;21061;-84
2021/03/15 10:44:31;;;;;;;6.65;1.40;;;;;;;;;;4909104;28;20036;-84
2021/03/15 10:46:57;;;;;;;7.93;1.58;;;;;;;;;;4921615;28;20035;-84
2021/03/15 10:49:27;;;;;;;6.90;1.30;;;;;;;;;;4911339;29;20520;-84
2021/03/15 10:51:55;;;;;;;6.88;1.77;;;;;;;;;;4918240;28;20042;-84
2021/03/15 10:54:30;;;;;;;7.63;1.48;;;;;;;;;;4922800;28;20031;-84
2021/03/15 10:57:17;;;;;;;6.63;1.50;;;;;;;;;;4921556;28;20911;-88
2021/03/15 10:59:45;;;;;;;7.53;1.60;;;;;;;;;;4905014;29;20328;-86
2021/03/15 11:02:19;;;;;;;5.88;1.52;;;;;;;;;;4910282;29;20032;-85
2021/03/15 11:04:51;;;;;;;8.20;1.70;;;;;;;;;;4918080;28;20638;-87
2021/03/15 11:07:19;;;;;;;5.88;1.45;;;;;;;;;;4907529;29;20388;-87
2021/03/15 11:09:54;;;;;;;7.82;1.52;;;;;;;;;;4915322;29;20040;-86
2021/03/15 11:12:33;;;;;;;6.77;1.40;;;;;;;;;;4907085;29;20429;-85
2021/03/15 11:15:19;;;;;;;7.75;1.70;;;;;;;;;;4903845;29;20044;-86
2021/03/15 11:17:45;;;;;;;;;;;;;;;;;;4910236;28;20043;-86
2021/03/15 11:20:12;;;;;;;5.32;1.20;;;;;;;;;;4903085;29;19918;-85
2021/03/15 11:22:46;;;;;;;6.28;1.63;;;;;;;;;;4913630;29;20043;-86
2021/03/15 11:25:12;;;;;;;8.38;1.80;;;;;;;;;;4909191;29;20073;-86
2021/03/15 11:27:39;;;;;;;6.45;1.40;;;;;;;;;;4901915;29;20452;-85
2021/03/15 11:30:06;;;;;;;7.13;2.00;;;;;;;;;;4910725;28;20874;-85
2021/03/15 11:32:33;;;;;;;6.63;1.70;;;;;;;;;;4922230;28;20036;-85
2021/03/15 11:34:59;;;;;;;6.18;1.33;;;;;;;;;;4908525;29;20134;-85
2021/03/15 11:37:32;;;;;;;5.78;1.45;;;;;;;;;;4906596;29;20066;-83
2021/03/15 11:39:59;;;;;;;8.75;1.80;;;;;;;;;;4899252;28;20035;-84
2021/03/15 11:42:32;;;;;;;6.57;1.73;;;;;;;;;;4911479;29;20078;-84
2021/03/15 11:44:59;;;;;;;6.85;1.63;;;;;;;;;;4903698;29;20048;-84
2021/03/15 11:47:25;;;;;;;8.60;2.53;;;;;;;;;;4910182;29;20032;-84
2021/03/15 11:49:51;;;;;;;8.93;1.90;;;;;;;;;;4905141;29;20063;-84
2021/03/15 11:52:29;;;;;;;6.72;1.50;;;;;;;;;;4907317;29;20038;-84
2021/03/15 11:54:55;;;;;;;6.35;1.63;;;;;;;;;;4908233;29;20028;-84
2021/03/15 11:57:22;;;;;;;6.57;1.90;;;;;;;;;;4907585;29;20051;-86
2021/03/15 11:59:48;;;;;;;9.27;1.80;;;;;;;;;;4907959;29;20055;-86
2021/03/15 12:02:14;;;;;;;8.40;1.83;;;;;;;;;;4914617;29;20077;-84
2021/03/15 12:04:41;;;;;;;8.05;1.73;;;;;;;;;;4906683;29;20111;-85
2021/03/15 12:07:07;;;;;;;6.25;1.40;;;;;;;;;;4919337;28;20032;-84
2021/03/15 12:09:34;;;;;;;6.38;1.60;;;;;;;;;;4893527;29;20086;-84
2021/03/15 12:12:00;;;;;;;6.13;1.40;;;;;;;;;;4929703;28;20031;-84
2021/03/15 12:14:27;;;;;;;5.93;1.20;;;;;;;;;;4938206;28;20110;-85
2021/03/15 12:16:54;;;;;;;5.25;1.10;;;;;;;;;;4925401;28;20083;-86
2021/03/15 12:19:20;;;;;;;5.82;1.52;;;;;;;;;;4909047;28;20043;-83
2021/03/15 12:21:47;;;;;;;6.05;1.50;;;;;;;;;;4908095;28;20031;-84
2021/03/15 12:24:13;;;;;;;6.72;1.50;;;;;;;;;;4909301;28;20040;-84
2021/03/15 12:26:39;;;;;;;6.47;1.60;;;;;;;;;;4914754;28;20038;-84
2021/03/15 12:29:05;;;;;;;9.32;1.77;;;;;;;;;;4909530;28;20466;-84
2021/03/15 12:31:31;;;;;;;5.22;1.15;;;;;;;;;;4905861;28;20042;-85
2021/03/15 12:33:57;;;;;;;6.65;1.27;;;;;;;;;;4916711;28;20043;-83
2021/03/15 12:36:24;;;;;;;4.78;1.10;;;;;;;;;;4932836;28;20095;-84
2021/03/15 12:38:50;;;;;;;5.10;1.13;;;;;;;;;;4898865;28;20559;-84
2021/03/15 12:41:18;;;;;;;6.05;1.30;;;;;;;;;;4910497;28;20035;-84
2021/03/15 12:43:44;;;;;;;6.63;1.20;;;;;;;;;;4921920;28;20121;-85
2021/03/15 12:46:17;;;;;;;6.00;1.40;;;;;;;;;;4923131;28;20210;-87
2021/03/15 12:48:45;;;;;;;7.05;1.45;;;;;;;;;;4932360;28;20031;-85
2021/03/15 12:51:12;;;;;;;5.30;1.33;;;;;;;;;;4917959;28;20495;-85
2021/03/15 12:53:39;;;;;;;7.97;1.52;;;;;;;;;;4945705;28;20038;-85
2021/03/15 12:56:06;;;;;;;7.53;1.38;;;;;;;;;;4916614;28;20032;-84
2021/03/15 12:58:33;;;;;;;6.45;1.58;;;;;;;;;;4914131;29;20031;-85
2021/03/15 13:01:00;;;;;;;6.50;1.45;;;;;;;;;;4921055;28;20015;-85
2021/03/15 13:03:26;;;;;;;5.85;1.35;;;;;;;;;;4945134;28;20004;-86
2021/03/15 13:05:53;;;;;;;6.05;1.25;;;;;;;;;;4919257;28;20113;-86
2021/03/15 13:08:19;;;;;;;5.53;1.33;;;;;;;;;;4913249;28;20036;-87
2021/03/15 13:10:46;;;;;;;5.38;1.25;;;;;;;;;;4928600;28;20028;-86
2021/03/15 13:13:12;;;;;;;4.88;1.02;;;;;;;;;;4924787;28;20055;-89
2021/03/15 13:15:38;;;;;;;4.95;1.13;;;;;;;;;;4936504;28;20034;-86
2021/03/15 13:18:04;;;;;;;5.25;1.00;;;;;;;;;;4910630;28;21007;-86
2021/03/15 13:20:31;;;;;;;6.10;1.17;;;;;;;;;;4920788;28;20055;-87
2021/03/15 13:22:57;;;;;;;5.07;1.10;;;;;;;;;;4925069;28;20048;-86
2021/03/15 13:25:24;;;;;;;6.05;1.42;;;;;;;;;;4913010;28;20059;-86
2021/03/15 13:27:50;;;;;;;5.53;1.40;;;;;;;;;;4921592;28;20027;-87
2021/03/15 13:30:17;;;;;;;5.15;1.35;;;;;;;;;;4921260;28;20042;-86
2021/03/15 13:32:44;;;;;;;6.00;1.38;;;;;;;;;;4913936;28;20123;-88
2021/03/15 13:35:11;;;;;;;5.88;1.25;;;;;;;;;;4911086;28;20046;-87
2021/03/15 13:37:40;;;;;;;5.13;1.00;;;;;;;;;;4916978;28;20032;-85
2021/03/15 13:40:10;;;;;;;4.60;1.08;;;;;;;;;;4924050;28;20039;-86
2021/03/15 13:42:36;;;;;;;4.68;1.10;;;;;;;;;;4921843;28;20094;-85
2021/03/15 13:45:05;;;;;;;6.18;1.23;;;;;;;;;;4911642;28;20059;-84
2021/03/15 13:47:32;;;;;;;6.85;1.20;;;;;;;;;;4920476;28;20122;-86
2021/03/15 13:49:59;;;;;;;7.28;1.20;;;;;;;;;;4925398;28;20090;-87
2021/03/15 13:52:25;;;;;;;5.90;1.40;;;;;;;;;;4927011;28;20040;-86
2021/03/15 13:54:51;;;;;;;5.80;1.33;;;;;;;;;;4912570;28;20093;-86
2021/03/15 13:57:17;;;;;;;6.60;1.33;;;;;;;;;;4916591;28;20098;-86
2021/03/15 13:59:44;;;;;;;4.57;0.98;;;;;;;;;;4917421;28;20324;-87
2021/03/15 14:02:10;;;;;;;6.07;1.25;;;;;;;;;;4914117;28;20114;-84
2021/03/15 14:04:37;;;;;;;5.43;1.00;;;;;;;;;;4935644;28;20032;-86
2021/03/15 14:07:04;;;;;;;6.95;1.15;;;;;;;;;;4920043;28;21083;-86
2021/03/15 14:09:31;;;;;;;5.95;1.23;;;;;;;;;;4919006;28;20099;-86
2021/03/15 14:11:57;;;;;;;6.38;1.55;;;;;;;;;;4926988;28;20130;-86
2021/03/15 14:14:24;;;;;;;5.65;1.08;;;;;;;;;;4913876;28;20302;-86
2021/03/15 14:16:51;;;;;;;6.93;1.30;;;;;;;;;;4928308;28;20075;-86
2021/03/15 14:19:18;;;;;;;5.97;1.60;;;;;;;;;;4909945;28;20047;-87
2021/03/15 14:21:45;;;;;;;7.35;1.30;;;;;;;;;;4915099;28;20170;-79
2021/03/15 14:24:11;;;;;;;5.50;1.20;;;;;;;;;;4917065;28;20039;-82
2021/03/15 14:26:37;;;;;;;7.03;1.40;;;;;;;;;;4901257;28;20403;-81
2021/03/15 14:29:05;;;;;;;5.30;1.30;;;;;;;;;;4901775;28;21675;-80
2021/03/15 14:31:31;;;;;;;7.22;1.50;;;;;;;;;;4919373;28;20126;-80
2021/03/15 14:33:59;;;;;;;7.53;1.27;;;;;;;;;;4897660;28;20053;-80
2021/03/15 14:36:25;;;;;;;5.38;1.10;;;;;;;;;;4909460;28;20039;-80
2021/03/15 14:38:52;;;;;;;5.65;1.25;;;;;;;;;;4910429;28;20122;-80
2021/03/15 14:41:18;;;;;;;7.30;1.40;;;;;;;;;;4924965;28;20042;-81
2021/03/15 14:43:44;;;;;;;5.88;1.40;;;;;;;;;;4916291;28;20067;-81
2021/03/15 14:46:10;;;;;;;5.75;1.27;;;;;;;;;;4916191;28;20036;-81
2021/03/15 14:48:37;;;;;;;7.15;1.42;;;;;;;;;;4904897;28;20043;-80